sensor_id;sensor_type;location;lat;lon;timestamp;temperature;humidity
46364;DHT22;32071;49.036;9.344;2024-02-26T00:02:16;7.40;99.90
46364;DHT22;32071;49.036;9.344;2024-02-26T00:04:42;7.50;99.90
46364;DHT22;32071;49.036;9.344;2024-02-26T00:07:07;7.40;99.90
46364;DHT22;32071;49.036;9.344;2024-02-26T00:09:33;7.40;99.90
46364;DHT22;32071;49.036;9.344;2024-02-26T00:12:02;7.40;99.90
46364;DHT22;32071;49.036;9.344;2024-02-26T00:14:29;7.40;99.90
46364;DHT22;32071;49.036;9.344;2024-02-26T00:16:55;7.30;99.90
46364;DHT22;32071;49.036;9.344;2024-02-26T00:19:20;7.30;99.90
46364;DHT22;32071;49.036;9.344;2024-02-26T00:21:46;7.30;99.90
46364;DHT22;32071;49.036;9.344;2024-02-26T00:24:11;7.30;99.90
46364;DHT22;32071;49.036;9.344;2024-02-26T00:26:37;7.30;99.90
46364;DHT22;32071;49.036;9.344;2024-02-26T00:29:03;7.30;99.90
46364;DHT22;32071;49.036;9.344;2024-02-26T00:31:28;7.30;99.90
46364;DHT22;32071;49.036;9.344;2024-02-26T00:33:54;7.20;99.90
46364;DHT22;32071;49.036;9.344;2024-02-26T00:36:19;7.20;99.90
46364;DHT22;32071;49.036;9.344;2024-02-26T00:38:45;7.30;99.90
46364;DHT22;32071;49.036;9.344;2024-02-26T00:41:19;7.30;99.90
46364;DHT22;32071;49.036;9.344;2024-02-26T00:43:45;7.30;99.90
46364;DHT22;32071;49.036;9.344;2024-02-26T00:46:10;7.30;99.90
46364;DHT22;32071;49.036;9.344;2024-02-26T00:48:36;7.20;99.90
46364;DHT22;32071;49.036;9.344;2024-02-26T00:51:03;7.20;99.90
46364;DHT22;32071;49.036;9.344;2024-02-26T00:53:31;7.20;99.90
46364;DHT22;32071;49.036;9.344;2024-02-26T00:55:57;7.20;99.90
46364;DHT22;32071;49.036;9.344;2024-02-26T00:58:24;7.20;99.90
46364;DHT22;32071;49.036;9.344;2024-02-26T01:00:50;7.20;99.90
46364;DHT22;32071;49.036;9.344;2024-02-26T01:03:15;7.10;99.90
46364;DHT22;32071;49.036;9.344;2024-02-26T01:05:41;7.10;99.90
46364;DHT22;32071;49.036;9.344;2024-02-26T01:08:07;7.00;99.90
46364;DHT22;32071;49.036;9.344;2024-02-26T01:10:33;7.00;99.90
46364;DHT22;32071;49.036;9.344;2024-02-26T01:12:59;6.90;99.90
46364;DHT22;32071;49.036;9.344;2024-02-26T01:15:25;6.90;99.90
46364;DHT22;32071;49.036;9.344;2024-02-26T01:17:50;7.00;99.90
46364;DHT22;32071;49.036;9.344;2024-02-26T01:20:16;6.90;99.90
46364;DHT22;32071;49.036;9.344;2024-02-26T01:22:43;6.80;99.90
46364;DHT22;32071;49.036;9.344;2024-02-26T01:25:08;6.80;99.90
46364;DHT22;32071;49.036;9.344;2024-02-26T01:27:35;6.80;99.90
46364;DHT22;32071;49.036;9.344;2024-02-26T01:30:03;6.90;99.90
46364;DHT22;32071;49.036;9.344;2024-02-26T01:32:29;6.90;99.90
46364;DHT22;32071;49.036;9.344;2024-02-26T01:34:54;6.90;99.90
46364;DHT22;32071;49.036;9.344;2024-02-26T01:37:20;7.00;99.90
46364;DHT22;32071;49.036;9.344;2024-02-26T01:39:46;7.00;99.90
46364;DHT22;32071;49.036;9.344;2024-02-26T01:42:11;7.00;99.90
46364;DHT22;32071;49.036;9.344;2024-02-26T01:44:37;7.10;99.90
46364;DHT22;32071;49.036;9.344;2024-02-26T01:47:04;7.00;99.90
46364;DHT22;32071;49.036;9.344;2024-02-26T01:49:30;7.10;99.90
46364;DHT22;32071;49.036;9.344;2024-02-26T01:51:57;7.20;99.90
46364;DHT22;32071;49.036;9.344;2024-02-26T01:54:23;7.20;99.90
46364;DHT22;32071;49.036;9.344;2024-02-26T01:56:49;7.20;99.90
46364;DHT22;32071;49.036;9.344;2024-02-26T01:59:17;7.10;99.90
46364;DHT22;32071;49.036;9.344;2024-02-26T02:01:44;7.10;99.90
46364;DHT22;32071;49.036;9.344;2024-02-26T02:04:11;7.00;99.90
46364;DHT22;32071;49.036;9.344;2024-02-26T02:06:38;6.90;99.90
46364;DHT22;32071;49.036;9.344;2024-02-26T02:09:03;6.90;99.90
46364;DHT22;32071;49.036;9.344;2024-02-26T02:11:33;6.80;99.90
46364;DHT22;32071;49.036;9.344;2024-02-26T02:13:59;6.80;99.90
46364;DHT22;32071;49.036;9.344;2024-02-26T02:16:24;6.70;99.90
46364;DHT22;32071;49.036;9.344;2024-02-26T02:18:51;6.70;99.90
46364;DHT22;32071;49.036;9.344;2024-02-26T02:21:17;6.60;99.90
46364;DHT22;32071;49.036;9.344;2024-02-26T02:23:42;6.60;99.90
46364;DHT22;32071;49.036;9.344;2024-02-26T02:26:12;6.70;99.90
46364;DHT22;32071;49.036;9.344;2024-02-26T02:28:39;6.70;99.90
46364;DHT22;32071;49.036;9.344;2024-02-26T02:31:06;6.70;99.90
46364;DHT22;32071;49.036;9.344;2024-02-26T02:33:32;6.70;99.90
46364;DHT22;32071;49.036;9.344;2024-02-26T02:35:58;6.80;99.90
46364;DHT22;32071;49.036;9.344;2024-02-26T02:38:24;6.90;99.90
46364;DHT22;32071;49.036;9.344;2024-02-26T02:40:51;6.90;99.90
46364;DHT22;32071;49.036;9.344;2024-02-26T02:43:17;6.90;99.90
46364;DHT22;32071;49.036;9.344;2024-02-26T02:45:42;7.00;99.90
46364;DHT22;32071;49.036;9.344;2024-02-26T02:48:08;7.00;99.90
46364;DHT22;32071;49.036;9.344;2024-02-26T02:50:34;7.00;99.90
46364;DHT22;32071;49.036;9.344;2024-02-26T02:52:59;7.00;99.90
46364;DHT22;32071;49.036;9.344;2024-02-26T02:55:25;7.00;99.90
46364;DHT22;32071;49.036;9.344;2024-02-26T02:57:50;7.00;99.90
46364;DHT22;32071;49.036;9.344;2024-02-26T03:00:16;7.00;99.90
46364;DHT22;32071;49.036;9.344;2024-02-26T03:02:42;7.00;99.90
46364;DHT22;32071;49.036;9.344;2024-02-26T03:05:08;7.10;99.90
46364;DHT22;32071;49.036;9.344;2024-02-26T03:07:34;7.00;99.90
46364;DHT22;32071;49.036;9.344;2024-02-26T03:09:59;7.00;99.90
46364;DHT22;32071;49.036;9.344;2024-02-26T03:12:25;7.00;99.90
46364;DHT22;32071;49.036;9.344;2024-02-26T03:14:51;7.00;99.90
46364;DHT22;32071;49.036;9.344;2024-02-26T03:17:17;6.90;99.90
46364;DHT22;32071;49.036;9.344;2024-02-26T03:19:44;7.00;99.90
46364;DHT22;32071;49.036;9.344;2024-02-26T03:22:12;7.00;99.90
46364;DHT22;32071;49.036;9.344;2024-02-26T03:24:38;6.90;99.90
46364;DHT22;32071;49.036;9.344;2024-02-26T03:27:03;7.00;99.90
46364;DHT22;32071;49.036;9.344;2024-02-26T03:29:37;7.00;99.90
46364;DHT22;32071;49.036;9.344;2024-02-26T03:32:04;7.00;99.90
46364;DHT22;32071;49.036;9.344;2024-02-26T03:34:29;6.80;99.90
46364;DHT22;32071;49.036;9.344;2024-02-26T03:36:56;6.80;99.90
46364;DHT22;32071;49.036;9.344;2024-02-26T03:39:22;6.80;99.90
46364;DHT22;32071;49.036;9.344;2024-02-26T03:41:48;6.70;99.90
46364;DHT22;32071;49.036;9.344;2024-02-26T03:44:13;6.70;99.90
46364;DHT22;32071;49.036;9.344;2024-02-26T03:46:39;6.60;99.90
46364;DHT22;32071;49.036;9.344;2024-02-26T03:49:05;6.60;99.90
46364;DHT22;32071;49.036;9.344;2024-02-26T03:51:30;6.50;99.90
46364;DHT22;32071;49.036;9.344;2024-02-26T03:53:57;6.40;99.90
46364;DHT22;32071;49.036;9.344;2024-02-26T03:56:23;6.40;99.90
46364;DHT22;32071;49.036;9.344;2024-02-26T03:58:49;6.40;99.90
46364;DHT22;32071;49.036;9.344;2024-02-26T04:01:14;6.40;99.90
46364;DHT22;32071;49.036;9.344;2024-02-26T04:03:40;6.40;99.90
46364;DHT22;32071;49.036;9.344;2024-02-26T04:06:08;6.40;99.90
46364;DHT22;32071;49.036;9.344;2024-02-26T04:08:34;6.40;99.90
46364;DHT22;32071;49.036;9.344;2024-02-26T04:11:00;6.40;99.90
46364;DHT22;32071;49.036;9.344;2024-02-26T04:13:26;6.40;99.90
46364;DHT22;32071;49.036;9.344;2024-02-26T04:15:51;6.30;99.90
46364;DHT22;32071;49.036;9.344;2024-02-26T04:18:17;6.30;99.90
46364;DHT22;32071;49.036;9.344;2024-02-26T04:20:42;6.30;99.90
46364;DHT22;32071;49.036;9.344;2024-02-26T04:23:08;6.30;99.90
46364;DHT22;32071;49.036;9.344;2024-02-26T04:25:33;6.30;99.90
46364;DHT22;32071;49.036;9.344;2024-02-26T04:27:59;6.30;99.90
46364;DHT22;32071;49.036;9.344;2024-02-26T04:30:24;6.30;99.90
46364;DHT22;32071;49.036;9.344;2024-02-26T04:32:50;6.30;99.90
46364;DHT22;32071;49.036;9.344;2024-02-26T04:35:16;6.20;99.90
46364;DHT22;32071;49.036;9.344;2024-02-26T04:37:41;6.20;99.90
46364;DHT22;32071;49.036;9.344;2024-02-26T04:40:07;6.20;99.90
46364;DHT22;32071;49.036;9.344;2024-02-26T04:42:33;6.20;99.90
46364;DHT22;32071;49.036;9.344;2024-02-26T04:44:58;6.10;99.90
46364;DHT22;32071;49.036;9.344;2024-02-26T04:47:24;6.10;99.90
46364;DHT22;32071;49.036;9.344;2024-02-26T04:49:52;6.10;99.90
46364;DHT22;32071;49.036;9.344;2024-02-26T04:52:18;6.10;99.90
46364;DHT22;32071;49.036;9.344;2024-02-26T04:54:44;6.10;99.90
46364;DHT22;32071;49.036;9.344;2024-02-26T04:57:10;6.00;99.90
46364;DHT22;32071;49.036;9.344;2024-02-26T04:59:35;6.00;99.90
46364;DHT22;32071;49.036;9.344;2024-02-26T05:02:01;6.00;99.90
46364;DHT22;32071;49.036;9.344;2024-02-26T05:04:26;6.00;99.90
46364;DHT22;32071;49.036;9.344;2024-02-26T05:06:52;6.00;99.90
46364;DHT22;32071;49.036;9.344;2024-02-26T05:09:18;6.00;99.90
46364;DHT22;32071;49.036;9.344;2024-02-26T05:11:44;6.00;99.90
46364;DHT22;32071;49.036;9.344;2024-02-26T05:14:10;6.00;99.90
46364;DHT22;32071;49.036;9.344;2024-02-26T05:16:35;6.00;99.90
46364;DHT22;32071;49.036;9.344;2024-02-26T05:19:01;6.10;99.90
46364;DHT22;32071;49.036;9.344;2024-02-26T05:21:26;6.10;99.90
46364;DHT22;32071;49.036;9.344;2024-02-26T05:23:52;6.10;99.90
46364;DHT22;32071;49.036;9.344;2024-02-26T05:26:21;6.10;99.90
46364;DHT22;32071;49.036;9.344;2024-02-26T05:28:47;6.00;99.90
46364;DHT22;32071;49.036;9.344;2024-02-26T05:31:13;6.10;99.90
46364;DHT22;32071;49.036;9.344;2024-02-26T05:33:39;6.10;99.90
46364;DHT22;32071;49.036;9.344;2024-02-26T05:36:05;6.10;99.90
46364;DHT22;32071;49.036;9.344;2024-02-26T05:38:30;6.10;99.90
46364;DHT22;32071;49.036;9.344;2024-02-26T05:40:57;6.20;99.90
46364;DHT22;32071;49.036;9.344;2024-02-26T05:43:24;6.20;99.90
46364;DHT22;32071;49.036;9.344;2024-02-26T05:45:50;6.20;99.90
46364;DHT22;32071;49.036;9.344;2024-02-26T05:48:15;6.20;99.90
46364;DHT22;32071;49.036;9.344;2024-02-26T05:50:41;6.30;99.90
46364;DHT22;32071;49.036;9.344;2024-02-26T05:53:06;6.30;99.90
46364;DHT22;32071;49.036;9.344;2024-02-26T05:55:32;6.30;99.90
46364;DHT22;32071;49.036;9.344;2024-02-26T05:57:58;6.40;99.90
46364;DHT22;32071;49.036;9.344;2024-02-26T06:00:23;6.30;99.90
46364;DHT22;32071;49.036;9.344;2024-02-26T06:02:49;6.40;99.90
46364;DHT22;32071;49.036;9.344;2024-02-26T06:05:14;6.40;99.90
46364;DHT22;32071;49.036;9.344;2024-02-26T06:07:40;6.40;99.90
46364;DHT22;32071;49.036;9.344;2024-02-26T06:10:06;6.40;99.90
46364;DHT22;32071;49.036;9.344;2024-02-26T06:12:32;6.40;99.90
46364;DHT22;32071;49.036;9.344;2024-02-26T06:15:00;6.50;99.90
46364;DHT22;32071;49.036;9.344;2024-02-26T06:17:26;6.50;99.90
46364;DHT22;32071;49.036;9.344;2024-02-26T06:19:52;6.60;99.90
46364;DHT22;32071;49.036;9.344;2024-02-26T06:22:18;6.60;99.90
46364;DHT22;32071;49.036;9.344;2024-02-26T06:24:44;6.60;99.90
46364;DHT22;32071;49.036;9.344;2024-02-26T06:27:09;6.60;99.90
46364;DHT22;32071;49.036;9.344;2024-02-26T06:29:35;6.50;99.90
46364;DHT22;32071;49.036;9.344;2024-02-26T06:32:00;6.60;99.90
46364;DHT22;32071;49.036;9.344;2024-02-26T06:34:26;6.60;99.90
46364;DHT22;32071;49.036;9.344;2024-02-26T06:36:51;6.60;99.90
46364;DHT22;32071;49.036;9.344;2024-02-26T06:39:17;6.60;99.90
46364;DHT22;32071;49.036;9.344;2024-02-26T06:41:43;6.70;99.90
46364;DHT22;32071;49.036;9.344;2024-02-26T06:44:09;6.70;99.90
46364;DHT22;32071;49.036;9.344;2024-02-26T06:46:34;6.70;99.90
46364;DHT22;32071;49.036;9.344;2024-02-26T06:49:00;6.60;99.90
46364;DHT22;32071;49.036;9.344;2024-02-26T06:51:25;6.60;99.90
46364;DHT22;32071;49.036;9.344;2024-02-26T06:53:51;6.50;99.90
46364;DHT22;32071;49.036;9.344;2024-02-26T06:56:17;6.50;99.90
46364;DHT22;32071;49.036;9.344;2024-02-26T06:58:42;6.60;99.90
46364;DHT22;32071;49.036;9.344;2024-02-26T07:01:08;6.60;99.90
46364;DHT22;32071;49.036;9.344;2024-02-26T07:03:34;6.50;99.90
46364;DHT22;32071;49.036;9.344;2024-02-26T07:05:59;6.50;99.90
46364;DHT22;32071;49.036;9.344;2024-02-26T07:08:25;6.60;99.90
46364;DHT22;32071;49.036;9.344;2024-02-26T07:10:51;6.60;99.90
46364;DHT22;32071;49.036;9.344;2024-02-26T07:13:17;6.60;99.90
46364;DHT22;32071;49.036;9.344;2024-02-26T07:15:42;6.60;99.90
46364;DHT22;32071;49.036;9.344;2024-02-26T07:18:08;6.60;99.90
46364;DHT22;32071;49.036;9.344;2024-02-26T07:20:34;6.60;99.90
46364;DHT22;32071;49.036;9.344;2024-02-26T07:22:59;6.70;99.90
46364;DHT22;32071;49.036;9.344;2024-02-26T07:25:25;6.80;99.90
46364;DHT22;32071;49.036;9.344;2024-02-26T07:27:50;6.80;99.90
46364;DHT22;32071;49.036;9.344;2024-02-26T07:30:16;6.90;99.90
46364;DHT22;32071;49.036;9.344;2024-02-26T07:32:42;6.90;99.90
46364;DHT22;32071;49.036;9.344;2024-02-26T07:35:08;6.90;99.90
46364;DHT22;32071;49.036;9.344;2024-02-26T07:37:34;6.90;99.90
46364;DHT22;32071;49.036;9.344;2024-02-26T07:40:00;6.90;99.90
46364;DHT22;32071;49.036;9.344;2024-02-26T07:42:25;7.00;99.90
46364;DHT22;32071;49.036;9.344;2024-02-26T07:44:51;7.00;99.90
46364;DHT22;32071;49.036;9.344;2024-02-26T07:47:18;7.10;99.90
46364;DHT22;32071;49.036;9.344;2024-02-26T07:49:43;7.10;99.90
46364;DHT22;32071;49.036;9.344;2024-02-26T07:52:09;7.20;99.90
46364;DHT22;32071;49.036;9.344;2024-02-26T07:54:34;7.30;99.90
46364;DHT22;32071;49.036;9.344;2024-02-26T07:57:00;7.40;99.90
46364;DHT22;32071;49.036;9.344;2024-02-26T07:59:26;7.50;99.90
46364;DHT22;32071;49.036;9.344;2024-02-26T08:01:52;7.60;99.90
46364;DHT22;32071;49.036;9.344;2024-02-26T08:04:18;7.70;99.90
46364;DHT22;32071;49.036;9.344;2024-02-26T08:06:43;7.80;99.90
46364;DHT22;32071;49.036;9.344;2024-02-26T08:09:09;7.90;99.90
46364;DHT22;32071;49.036;9.344;2024-02-26T08:11:35;7.80;99.90
46364;DHT22;32071;49.036;9.344;2024-02-26T08:14:00;7.90;99.90
46364;DHT22;32071;49.036;9.344;2024-02-26T08:16:26;7.90;99.90
46364;DHT22;32071;49.036;9.344;2024-02-26T08:18:52;7.90;99.90
46364;DHT22;32071;49.036;9.344;2024-02-26T08:21:18;8.00;99.90
46364;DHT22;32071;49.036;9.344;2024-02-26T08:23:44;8.00;99.90
46364;DHT22;32071;49.036;9.344;2024-02-26T08:26:09;8.10;99.90
46364;DHT22;32071;49.036;9.344;2024-02-26T08:28:37;8.20;99.90
46364;DHT22;32071;49.036;9.344;2024-02-26T08:31:03;8.30;99.90
46364;DHT22;32071;49.036;9.344;2024-02-26T08:33:28;8.40;99.90
46364;DHT22;32071;49.036;9.344;2024-02-26T08:35:54;8.50;99.90
46364;DHT22;32071;49.036;9.344;2024-02-26T08:38:20;8.50;99.90
46364;DHT22;32071;49.036;9.344;2024-02-26T08:40:45;8.50;99.90
46364;DHT22;32071;49.036;9.344;2024-02-26T08:43:11;8.50;99.90
46364;DHT22;32071;49.036;9.344;2024-02-26T08:45:36;8.50;99.90
46364;DHT22;32071;49.036;9.344;2024-02-26T08:48:02;8.60;99.90
46364;DHT22;32071;49.036;9.344;2024-02-26T08:50:28;8.60;99.90
46364;DHT22;32071;49.036;9.344;2024-02-26T08:52:53;8.60;99.90
46364;DHT22;32071;49.036;9.344;2024-02-26T08:55:19;8.70;99.90
46364;DHT22;32071;49.036;9.344;2024-02-26T08:57:45;8.70;99.90
46364;DHT22;32071;49.036;9.344;2024-02-26T09:00:11;8.80;99.90
46364;DHT22;32071;49.036;9.344;2024-02-26T09:02:36;8.90;99.90
46364;DHT22;32071;49.036;9.344;2024-02-26T09:05:05;8.90;99.90
46364;DHT22;32071;49.036;9.344;2024-02-26T09:07:31;8.90;99.90
46364;DHT22;32071;49.036;9.344;2024-02-26T09:09:56;9.00;99.90
46364;DHT22;32071;49.036;9.344;2024-02-26T09:12:22;9.10;99.90
46364;DHT22;32071;49.036;9.344;2024-02-26T09:14:48;9.20;99.90
46364;DHT22;32071;49.036;9.344;2024-02-26T09:17:13;9.20;99.90
46364;DHT22;32071;49.036;9.344;2024-02-26T09:19:39;9.30;99.90
46364;DHT22;32071;49.036;9.344;2024-02-26T09:22:04;9.40;99.90
46364;DHT22;32071;49.036;9.344;2024-02-26T09:24:30;9.40;99.90
46364;DHT22;32071;49.036;9.344;2024-02-26T09:26:56;9.40;99.90
46364;DHT22;32071;49.036;9.344;2024-02-26T09:29:21;9.50;99.90
46364;DHT22;32071;49.036;9.344;2024-02-26T09:31:47;9.50;99.90
46364;DHT22;32071;49.036;9.344;2024-02-26T09:34:13;9.60;99.90
46364;DHT22;32071;49.036;9.344;2024-02-26T09:36:39;9.70;99.90
46364;DHT22;32071;49.036;9.344;2024-02-26T09:39:04;9.90;99.90
46364;DHT22;32071;49.036;9.344;2024-02-26T09:41:30;10.00;99.90
46364;DHT22;32071;49.036;9.344;2024-02-26T09:43:57;10.10;99.90
46364;DHT22;32071;49.036;9.344;2024-02-26T09:46:25;10.20;99.90
46364;DHT22;32071;49.036;9.344;2024-02-26T09:48:50;10.20;99.90
46364;DHT22;32071;49.036;9.344;2024-02-26T09:51:16;10.30;99.90
46364;DHT22;32071;49.036;9.344;2024-02-26T09:53:46;10.40;99.90
46364;DHT22;32071;49.036;9.344;2024-02-26T09:56:15;10.50;99.90
46364;DHT22;32071;49.036;9.344;2024-02-26T09:58:41;10.60;99.90
46364;DHT22;32071;49.036;9.344;2024-02-26T10:01:11;10.60;99.90
46364;DHT22;32071;49.036;9.344;2024-02-26T10:03:40;10.80;99.90
46364;DHT22;32071;49.036;9.344;2024-02-26T10:06:08;10.80;99.90
46364;DHT22;32071;49.036;9.344;2024-02-26T10:08:35;10.90;99.90
46364;DHT22;32071;49.036;9.344;2024-02-26T10:11:05;10.80;99.90
46364;DHT22;32071;49.036;9.344;2024-02-26T10:13:32;11.00;99.90
46364;DHT22;32071;49.036;9.344;2024-02-26T10:15:57;11.10;99.90
46364;DHT22;32071;49.036;9.344;2024-02-26T10:18:24;11.30;99.90
46364;DHT22;32071;49.036;9.344;2024-02-26T10:21:03;11.50;99.90
46364;DHT22;32071;49.036;9.344;2024-02-26T10:23:28;11.80;99.90
46364;DHT22;32071;49.036;9.344;2024-02-26T10:25:54;11.80;99.90
46364;DHT22;32071;49.036;9.344;2024-02-26T10:28:20;11.90;99.90
46364;DHT22;32071;49.036;9.344;2024-02-26T10:30:46;11.90;99.90
46364;DHT22;32071;49.036;9.344;2024-02-26T10:33:12;11.90;99.90
46364;DHT22;32071;49.036;9.344;2024-02-26T10:35:39;12.00;99.90
46364;DHT22;32071;49.036;9.344;2024-02-26T10:38:07;11.90;99.90
46364;DHT22;32071;49.036;9.344;2024-02-26T10:40:32;11.90;99.90
46364;DHT22;32071;49.036;9.344;2024-02-26T10:42:58;11.90;99.90
46364;DHT22;32071;49.036;9.344;2024-02-26T10:45:23;11.90;99.90
46364;DHT22;32071;49.036;9.344;2024-02-26T10:47:49;12.00;99.90
46364;DHT22;32071;49.036;9.344;2024-02-26T10:50:15;12.00;99.90
46364;DHT22;32071;49.036;9.344;2024-02-26T10:52:42;11.80;99.90
46364;DHT22;32071;49.036;9.344;2024-02-26T10:55:16;11.90;99.90
46364;DHT22;32071;49.036;9.344;2024-02-26T10:57:45;12.00;99.90
46364;DHT22;32071;49.036;9.344;2024-02-26T11:00:14;12.40;99.90
46364;DHT22;32071;49.036;9.344;2024-02-26T11:02:41;12.70;99.90
46364;DHT22;32071;49.036;9.344;2024-02-26T11:05:07;12.80;99.90
46364;DHT22;32071;49.036;9.344;2024-02-26T11:07:34;12.90;99.90
46364;DHT22;32071;49.036;9.344;2024-02-26T11:10:02;12.90;99.90
46364;DHT22;32071;49.036;9.344;2024-02-26T11:12:30;12.80;99.90
46364;DHT22;32071;49.036;9.344;2024-02-26T11:14:56;12.70;99.90
46364;DHT22;32071;49.036;9.344;2024-02-26T11:17:26;12.60;99.90
46364;DHT22;32071;49.036;9.344;2024-02-26T11:19:55;12.70;99.90
46364;DHT22;32071;49.036;9.344;2024-02-26T11:22:21;13.00;99.90
46364;DHT22;32071;49.036;9.344;2024-02-26T11:24:52;13.20;99.90
46364;DHT22;32071;49.036;9.344;2024-02-26T11:27:19;13.30;99.90
46364;DHT22;32071;49.036;9.344;2024-02-26T11:29:49;13.40;99.90
46364;DHT22;32071;49.036;9.344;2024-02-26T11:32:16;13.40;99.90
46364;DHT22;32071;49.036;9.344;2024-02-26T11:34:42;13.30;99.90
46364;DHT22;32071;49.036;9.344;2024-02-26T11:37:12;13.30;99.90
46364;DHT22;32071;49.036;9.344;2024-02-26T11:39:40;13.30;99.90
46364;DHT22;32071;49.036;9.344;2024-02-26T11:42:07;13.30;99.90
46364;DHT22;32071;49.036;9.344;2024-02-26T11:44:34;13.20;99.90
46364;DHT22;32071;49.036;9.344;2024-02-26T11:47:13;13.30;99.90
46364;DHT22;32071;49.036;9.344;2024-02-26T11:49:39;13.40;99.90
46364;DHT22;32071;49.036;9.344;2024-02-26T11:52:07;13.40;99.90
46364;DHT22;32071;49.036;9.344;2024-02-26T11:57:29;13.30;99.90
46364;DHT22;32071;49.036;9.344;2024-02-26T11:59:57;13.40;99.90
46364;DHT22;32071;49.036;9.344;2024-02-26T12:05:08;13.70;99.90
46364;DHT22;32071;49.036;9.344;2024-02-26T12:07:35;13.70;99.90
46364;DHT22;32071;49.036;9.344;2024-02-26T12:10:27;13.80;99.90
46364;DHT22;32071;49.036;9.344;2024-02-26T12:15:23;14.10;99.90
46364;DHT22;32071;49.036;9.344;2024-02-26T12:17:49;14.20;99.90
46364;DHT22;32071;49.036;9.344;2024-02-26T12:20:17;14.20;99.90
46364;DHT22;32071;49.036;9.344;2024-02-26T12:22:46;14.20;99.90
46364;DHT22;32071;49.036;9.344;2024-02-26T12:25:15;14.30;99.90
46364;DHT22;32071;49.036;9.344;2024-02-26T12:27:41;14.30;99.90
46364;DHT22;32071;49.036;9.344;2024-02-26T12:30:07;14.30;99.90
46364;DHT22;32071;49.036;9.344;2024-02-26T12:32:33;14.30;99.90
46364;DHT22;32071;49.036;9.344;2024-02-26T12:35:00;14.30;99.90
46364;DHT22;32071;49.036;9.344;2024-02-26T12:37:27;14.40;99.90
46364;DHT22;32071;49.036;9.344;2024-02-26T12:39:53;14.40;99.40
46364;DHT22;32071;49.036;9.344;2024-02-26T12:42:18;14.50;99.90
46364;DHT22;32071;49.036;9.344;2024-02-26T12:44:47;14.60;99.90
46364;DHT22;32071;49.036;9.344;2024-02-26T12:47:12;14.60;99.90
46364;DHT22;32071;49.036;9.344;2024-02-26T12:49:42;14.60;99.90
46364;DHT22;32071;49.036;9.344;2024-02-26T12:52:10;14.70;99.90
46364;DHT22;32071;49.036;9.344;2024-02-26T12:54:36;14.80;99.90
46364;DHT22;32071;49.036;9.344;2024-02-26T12:57:05;14.90;99.90
46364;DHT22;32071;49.036;9.344;2024-02-26T12:59:32;14.80;99.90
46364;DHT22;32071;49.036;9.344;2024-02-26T13:01:59;14.80;99.90
46364;DHT22;32071;49.036;9.344;2024-02-26T13:04:26;14.80;99.90
46364;DHT22;32071;49.036;9.344;2024-02-26T13:06:53;14.90;99.90
46364;DHT22;32071;49.036;9.344;2024-02-26T13:09:18;15.00;99.90
46364;DHT22;32071;49.036;9.344;2024-02-26T13:11:44;15.10;99.90
46364;DHT22;32071;49.036;9.344;2024-02-26T13:14:20;15.10;99.90
46364;DHT22;32071;49.036;9.344;2024-02-26T13:16:54;15.00;99.90
46364;DHT22;32071;49.036;9.344;2024-02-26T13:19:20;15.00;99.90
46364;DHT22;32071;49.036;9.344;2024-02-26T13:21:46;14.80;99.90
46364;DHT22;32071;49.036;9.344;2024-02-26T13:24:13;14.80;99.90
46364;DHT22;32071;49.036;9.344;2024-02-26T13:26:39;14.80;99.90
46364;DHT22;32071;49.036;9.344;2024-02-26T13:29:05;14.70;99.90
46364;DHT22;32071;49.036;9.344;2024-02-26T13:31:31;14.80;99.90
46364;DHT22;32071;49.036;9.344;2024-02-26T13:33:57;14.70;99.90
46364;DHT22;32071;49.036;9.344;2024-02-26T13:36:24;14.60;99.90
46364;DHT22;32071;49.036;9.344;2024-02-26T13:38:53;14.50;99.90
46364;DHT22;32071;49.036;9.344;2024-02-26T13:41:20;14.50;99.90
46364;DHT22;32071;49.036;9.344;2024-02-26T13:43:46;14.60;99.90
46364;DHT22;32071;49.036;9.344;2024-02-26T13:46:12;14.60;99.90
46364;DHT22;32071;49.036;9.344;2024-02-26T13:48:39;14.70;99.90
46364;DHT22;32071;49.036;9.344;2024-02-26T13:51:05;14.80;99.90
46364;DHT22;32071;49.036;9.344;2024-02-26T13:53:30;15.00;99.90
46364;DHT22;32071;49.036;9.344;2024-02-26T13:55:56;15.10;99.90
46364;DHT22;32071;49.036;9.344;2024-02-26T13:58:24;15.20;99.90
46364;DHT22;32071;49.036;9.344;2024-02-26T14:00:50;15.30;99.90
46364;DHT22;32071;49.036;9.344;2024-02-26T14:03:16;15.30;99.90
46364;DHT22;32071;49.036;9.344;2024-02-26T14:05:42;15.30;99.90
46364;DHT22;32071;49.036;9.344;2024-02-26T14:08:07;15.30;99.00
46364;DHT22;32071;49.036;9.344;2024-02-26T14:10:33;15.30;99.90
46364;DHT22;32071;49.036;9.344;2024-02-26T14:12:59;15.30;99.90
46364;DHT22;32071;49.036;9.344;2024-02-26T14:15:25;15.20;99.90
46364;DHT22;32071;49.036;9.344;2024-02-26T14:17:53;15.10;99.90
46364;DHT22;32071;49.036;9.344;2024-02-26T14:20:23;15.10;99.90
46364;DHT22;32071;49.036;9.344;2024-02-26T14:22:52;14.90;99.90
46364;DHT22;32071;49.036;9.344;2024-02-26T14:25:19;14.90;99.90
46364;DHT22;32071;49.036;9.344;2024-02-26T14:27:45;14.90;99.90
46364;DHT22;32071;49.036;9.344;2024-02-26T14:30:12;15.00;99.80
46364;DHT22;32071;49.036;9.344;2024-02-26T14:32:37;15.00;99.40
46364;DHT22;32071;49.036;9.344;2024-02-26T14:35:06;15.10;99.90
46364;DHT22;32071;49.036;9.344;2024-02-26T14:37:32;15.10;99.80
46364;DHT22;32071;49.036;9.344;2024-02-26T14:39:57;15.10;98.90
46364;DHT22;32071;49.036;9.344;2024-02-26T14:42:23;15.20;99.90
46364;DHT22;32071;49.036;9.344;2024-02-26T14:44:49;15.20;99.90
46364;DHT22;32071;49.036;9.344;2024-02-26T14:47:16;15.20;99.90
46364;DHT22;32071;49.036;9.344;2024-02-26T14:49:42;15.20;99.90
46364;DHT22;32071;49.036;9.344;2024-02-26T14:52:08;15.10;99.90
46364;DHT22;32071;49.036;9.344;2024-02-26T14:54:33;14.90;99.90
46364;DHT22;32071;49.036;9.344;2024-02-26T14:57:03;14.80;99.90
46364;DHT22;32071;49.036;9.344;2024-02-26T14:59:30;14.80;99.90
46364;DHT22;32071;49.036;9.344;2024-02-26T15:01:57;14.80;99.90
46364;DHT22;32071;49.036;9.344;2024-02-26T15:04:22;14.80;99.90
46364;DHT22;32071;49.036;9.344;2024-02-26T15:06:48;14.80;99.90
46364;DHT22;32071;49.036;9.344;2024-02-26T15:09:13;14.80;99.90
46364;DHT22;32071;49.036;9.344;2024-02-26T15:11:39;14.80;99.90
46364;DHT22;32071;49.036;9.344;2024-02-26T15:14:07;14.70;99.90
46364;DHT22;32071;49.036;9.344;2024-02-26T15:16:33;14.50;99.90
46364;DHT22;32071;49.036;9.344;2024-02-26T15:18:58;14.50;99.90
46364;DHT22;32071;49.036;9.344;2024-02-26T15:21:24;14.40;99.90
46364;DHT22;32071;49.036;9.344;2024-02-26T15:23:49;14.40;99.90
46364;DHT22;32071;49.036;9.344;2024-02-26T15:26:17;14.10;99.90
46364;DHT22;32071;49.036;9.344;2024-02-26T15:28:43;13.90;99.90
46364;DHT22;32071;49.036;9.344;2024-02-26T15:31:08;13.80;99.90
46364;DHT22;32071;49.036;9.344;2024-02-26T15:33:34;13.60;99.90
46364;DHT22;32071;49.036;9.344;2024-02-26T15:35:59;13.50;99.90
46364;DHT22;32071;49.036;9.344;2024-02-26T15:38:25;13.40;99.90
46364;DHT22;32071;49.036;9.344;2024-02-26T15:40:50;13.20;99.90
46364;DHT22;32071;49.036;9.344;2024-02-26T15:43:16;13.10;99.90